createdAt,value
2022-12-18T00:02:53.086Z,7.60
2022-12-18T00:06:07.927Z,7.03
2022-12-18T00:09:14.340Z,8.70
2022-12-18T00:12:20.852Z,7.60
2022-12-18T00:15:26.003Z,8.25
2022-12-18T00:18:31.090Z,7.92
2022-12-18T00:21:36.544Z,8.15
2022-12-18T00:24:42.481Z,7.15
2022-12-18T00:27:50.537Z,8.93
2022-12-18T00:30:59.817Z,8.18
2022-12-18T00:34:06.648Z,7.83
2022-12-18T00:37:16.889Z,7.42
2022-12-18T00:40:26.361Z,7.87
2022-12-18T00:43:32.580Z,7.78
2022-12-18T00:46:38.801Z,7.55
2022-12-18T00:49:45.140Z,7.87
2022-12-18T00:52:51.976Z,7.87
2022-12-18T00:55:57.939Z,8.68
2022-12-18T00:59:02.953Z,8.73
2022-12-18T01:02:11.543Z,8.35
2022-12-18T01:05:18.485Z,8.15
2022-12-18T01:08:24.942Z,8.00
2022-12-18T01:11:33.126Z,8.18
2022-12-18T01:14:41.080Z,7.47
2022-12-18T01:17:47.083Z,7.65
2022-12-18T01:20:54.103Z,8.00
2022-12-18T01:24:02.772Z,8.45
2022-12-18T01:27:08.596Z,7.87
2022-12-18T01:30:14.680Z,7.87
2022-12-18T01:33:23.511Z,7.97
2022-12-18T01:36:39.449Z,8.55
2022-12-18T01:39:44.874Z,7.47
2022-12-18T01:42:54.907Z,7.35
2022-12-18T01:46:01.167Z,6.60
2022-12-18T01:49:11.809Z,6.28
2022-12-18T01:52:17.984Z,6.55
2022-12-18T01:55:24.736Z,6.95
2022-12-18T01:58:31.168Z,7.17
2022-12-18T02:01:38.264Z,6.67
2022-12-18T02:04:49.380Z,7.58
2022-12-18T02:08:20.754Z,8.40
2022-12-18T02:11:35.545Z,8.15
2022-12-18T02:15:01.377Z,8.28
2022-12-18T02:18:18.177Z,8.20
2022-12-18T02:21:29.628Z,9.60
2022-12-18T02:25:08.656Z,9.55
2022-12-18T02:28:16.385Z,6.80
2022-12-18T02:31:27.686Z,7.00
2022-12-18T02:34:35.502Z,6.20
2022-12-18T02:37:43.749Z,6.60
2022-12-18T02:40:53.194Z,6.85
2022-12-18T02:44:03.972Z,7.08
2022-12-18T02:47:10.243Z,5.85
2022-12-18T02:50:51.133Z,4.75
2022-12-18T02:54:01.896Z,5.10
2022-12-18T02:57:09.577Z,4.42
2022-12-18T03:00:32.860Z,4.85
2022-12-18T03:03:53.219Z,4.80
2022-12-18T03:07:03.009Z,5.12
2022-12-18T03:10:08.485Z,4.10
2022-12-18T03:13:23.272Z,5.03
2022-12-18T03:16:32.375Z,6.25
2022-12-18T03:19:39.665Z,7.62
2022-12-18T03:22:45.587Z,7.62
2022-12-18T03:25:51.306Z,7.28
2022-12-18T03:29:11.448Z,7.60
2022-12-18T03:32:21.396Z,8.13
2022-12-18T03:35:27.343Z,7.40
2022-12-18T03:38:32.138Z,6.80
2022-12-18T03:42:01.483Z,7.25
2022-12-18T03:45:26.051Z,6.42
2022-12-18T03:48:56.560Z,6.70
2022-12-18T03:52:21.903Z,7.08
2022-12-18T03:55:29.435Z,6.47
2022-12-18T03:58:39.224Z,6.60
2022-12-18T04:01:53.634Z,6.10
2022-12-18T04:05:00.681Z,5.25
2022-12-18T04:08:05.797Z,5.95
2022-12-18T04:11:13.718Z,6.35
2022-12-18T04:14:20.197Z,6.40
2022-12-18T04:17:27.751Z,6.20
2022-12-18T04:20:33.720Z,6.60
2022-12-18T04:23:40.301Z,7.03
2022-12-18T04:26:49.031Z,7.58
2022-12-18T04:29:56.605Z,7.85
2022-12-18T04:33:02.026Z,7.00
2022-12-18T04:36:06.866Z,6.53
2022-12-18T04:39:12.431Z,8.13
2022-12-18T04:42:20.930Z,8.35
2022-12-18T04:45:26.692Z,8.83
2022-12-18T04:48:32.723Z,9.00
2022-12-18T04:51:40.804Z,8.80
2022-12-18T04:54:48.514Z,9.83
2022-12-18T04:57:55.458Z,9.75
2022-12-18T05:01:00.619Z,9.65
2022-12-18T05:04:08.448Z,9.80
2022-12-18T05:07:14.924Z,14.70
2022-12-18T05:10:21.273Z,13.38
2022-12-18T05:13:26.965Z,12.53
2022-12-18T05:16:33.713Z,11.90
2022-12-18T05:19:39.867Z,12.00
2022-12-18T05:22:45.699Z,12.78
2022-12-18T05:25:51.852Z,13.10
2022-12-18T05:28:57.361Z,12.65
2022-12-18T05:32:02.402Z,13.22
2022-12-18T05:35:07.115Z,13.85
2022-12-18T05:38:13.041Z,16.05
2022-12-18T05:41:19.018Z,16.50
2022-12-18T05:44:24.101Z,14.90
2022-12-18T05:47:30.031Z,20.27
2022-12-18T05:50:35.365Z,16.30
2022-12-18T05:53:43.677Z,15.98
2022-12-18T05:56:50.935Z,15.85
2022-12-18T05:59:57.432Z,15.38
2022-12-18T06:03:05.378Z,16.45
2022-12-18T06:06:11.166Z,14.63
2022-12-18T06:09:19.723Z,15.63
2022-12-18T06:12:27.161Z,16.75
2022-12-18T06:15:32.867Z,13.85
2022-12-18T06:18:38.564Z,14.47
2022-12-18T06:21:43.432Z,14.15
2022-12-18T06:24:48.829Z,14.10
2022-12-18T06:27:54.308Z,14.07
2022-12-18T06:31:01.624Z,13.28
2022-12-18T06:34:07.938Z,14.85
2022-12-18T06:37:14.252Z,14.70
2022-12-18T06:40:22.023Z,15.85
2022-12-18T06:43:29.478Z,14.90
2022-12-18T06:46:36.515Z,15.40
2022-12-18T06:49:43.209Z,15.40
2022-12-18T06:52:48.902Z,16.02
2022-12-18T06:55:54.713Z,15.60
2022-12-18T06:59:00.419Z,15.88
2022-12-18T07:02:05.539Z,15.53
2022-12-18T07:05:12.295Z,15.95
2022-12-18T07:08:17.544Z,16.70
2022-12-18T07:11:24.745Z,18.10
2022-12-18T07:14:30.921Z,17.05
2022-12-18T07:17:37.003Z,17.32
2022-12-18T07:20:42.802Z,16.65
2022-12-18T07:23:50.107Z,17.40
2022-12-18T07:26:55.890Z,16.57
2022-12-18T07:30:02.602Z,16.73
2022-12-18T07:33:09.460Z,15.83
2022-12-18T07:36:19.159Z,16.77
2022-12-18T07:39:20.313Z,15.78
2022-12-18T07:42:24.874Z,17.85
2022-12-18T07:45:19.524Z,17.23
2022-12-18T07:48:18.129Z,19.67
2022-12-18T07:51:24.950Z,17.10
2022-12-18T07:54:30.348Z,18.75
2022-12-18T07:57:56.373Z,19.27
2022-12-18T08:00:43.717Z,29.70
2022-12-18T08:03:52.795Z,21.97
2022-12-18T08:06:59.441Z,21.85
2022-12-18T08:10:07.038Z,21.33
2022-12-18T08:13:15.196Z,20.77
2022-12-18T08:16:23.424Z,19.10
2022-12-18T08:19:29.230Z,19.73
2022-12-18T08:22:34.633Z,18.82
2022-12-18T08:25:42.685Z,17.52
2022-12-18T08:28:48.660Z,19.48
2022-12-18T08:31:56.436Z,18.07
2022-12-18T08:35:03.062Z,17.10
2022-12-18T08:38:08.248Z,17.32
2022-12-18T08:41:20.338Z,16.15
2022-12-18T08:44:45.300Z,19.35
2022-12-18T08:47:51.369Z,19.35
2022-12-18T08:50:58.851Z,19.92
2022-12-18T08:54:06.503Z,18.70
2022-12-18T08:57:12.005Z,18.75
2022-12-18T09:00:20.681Z,17.77
2022-12-18T09:03:33.170Z,20.12
2022-12-18T09:09:46.893Z,18.85
2022-12-18T09:12:54.698Z,17.45
2022-12-18T09:16:06.151Z,19.27
2022-12-18T09:19:12.843Z,21.65
2022-12-18T09:22:18.522Z,19.05
2022-12-18T09:25:23.674Z,19.60
2022-12-18T09:28:29.823Z,20.10
2022-12-18T09:31:36.325Z,18.67
2022-12-18T09:34:42.156Z,19.40
2022-12-18T09:37:51.208Z,23.47
2022-12-18T09:41:07.479Z,25.12
2022-12-18T09:44:17.684Z,25.45
2022-12-18T09:47:32.423Z,23.73
2022-12-18T09:50:48.355Z,22.52
2022-12-18T09:53:56.342Z,19.67
2022-12-18T09:57:02.244Z,21.73
2022-12-18T10:00:26.826Z,20.95
2022-12-18T10:03:35.004Z,20.57
2022-12-18T10:06:58.598Z,18.92
2022-12-18T10:10:25.197Z,21.30
2022-12-18T10:13:45.549Z,21.87
2022-12-18T10:17:07.172Z,19.85
2022-12-18T10:20:32.959Z,20.30
2022-12-18T10:23:59.973Z,20.68
2022-12-18T10:27:05.325Z,19.95
2022-12-18T10:30:11.400Z,21.17
2022-12-18T10:33:20.268Z,18.77
2022-12-18T10:36:27.158Z,19.32
2022-12-18T10:39:38.088Z,20.30
2022-12-18T10:42:44.281Z,19.60
2022-12-18T10:45:50.836Z,20.02
2022-12-18T10:49:09.757Z,19.92
2022-12-18T10:52:42.052Z,19.95
2022-12-18T10:55:53.699Z,17.23
2022-12-18T10:58:59.154Z,17.62
2022-12-18T11:02:09.928Z,18.20
2022-12-18T11:05:16.637Z,19.48
2022-12-18T11:08:25.286Z,16.57
2022-12-18T11:11:30.537Z,19.23
2022-12-18T11:14:34.270Z,18.70
2022-12-18T11:17:45.317Z,20.70
2022-12-18T11:20:55.539Z,18.70
2022-12-18T11:24:07.703Z,17.42
2022-12-18T11:27:17.308Z,21.73
2022-12-18T11:30:19.871Z,19.30
2022-12-18T11:33:21.829Z,18.25
2022-12-18T11:36:21.406Z,17.48
2022-12-18T11:39:12.444Z,16.97
2022-12-18T11:42:35.354Z,15.38
2022-12-18T11:45:33.749Z,15.90
2022-12-18T11:48:51.272Z,16.70
2022-12-18T11:51:56.040Z,16.42
2022-12-18T11:55:02.156Z,15.30
2022-12-18T11:58:31.492Z,15.83
2022-12-18T12:01:44.963Z,15.83
2022-12-18T12:05:17.970Z,13.72
2022-12-18T12:09:16.081Z,14.60
2022-12-18T12:12:36.397Z,14.40
2022-12-18T12:16:16.249Z,14.58
2022-12-18T12:20:12.576Z,14.78
2022-12-18T12:23:55.934Z,14.85
2022-12-18T12:27:23.881Z,14.25
2022-12-18T12:30:41.730Z,13.83
2022-12-18T12:34:04.945Z,13.90
2022-12-18T12:37:34.152Z,13.40
2022-12-18T12:40:52.677Z,13.98
2022-12-18T12:43:59.235Z,13.30
2022-12-18T12:47:06.049Z,11.40
2022-12-18T12:50:13.867Z,14.13
2022-12-18T12:53:21.622Z,12.95
2022-12-18T12:56:33.013Z,12.43
2022-12-18T13:00:05.795Z,11.22
2022-12-18T13:03:50.449Z,11.75
2022-12-18T13:07:06.725Z,12.73
2022-12-18T13:10:38.087Z,13.22
2022-12-18T13:13:43.986Z,11.78
2022-12-18T13:16:52.258Z,12.03
2022-12-18T13:19:59.062Z,12.05
2022-12-18T13:23:05.514Z,18.60
2022-12-18T13:26:14.777Z,14.60
2022-12-18T13:29:21.760Z,14.03
2022-12-18T13:32:40.038Z,13.65
2022-12-18T13:36:04.562Z,11.38
2022-12-18T13:43:07.537Z,12.53
2022-12-18T13:46:20.219Z,11.75
2022-12-18T13:49:34.031Z,12.20
2022-12-18T13:52:50.775Z,13.00
2022-12-18T13:55:58.101Z,12.28
2022-12-18T13:59:23.287Z,11.57
2022-12-18T14:02:32.754Z,11.40
2022-12-18T14:05:47.911Z,12.63
2022-12-18T14:08:56.777Z,9.55
2022-12-18T14:12:07.978Z,10.53
2022-12-18T14:15:15.219Z,11.30
2022-12-18T14:18:38.684Z,10.80
2022-12-18T14:21:45.257Z,9.45
2022-12-18T14:24:52.267Z,10.45
2022-12-18T14:28:07.821Z,9.80
2022-12-18T14:31:13.318Z,11.28
2022-12-18T14:34:19.816Z,8.68
2022-12-18T14:37:30.647Z,13.83
2022-12-18T14:40:35.914Z,12.28
2022-12-18T14:43:42.860Z,10.78
2022-12-18T14:47:00.695Z,12.05
2022-12-18T14:50:06.903Z,11.45
2022-12-18T14:53:11.934Z,10.10
2022-12-18T14:56:39.095Z,11.73
2022-12-18T14:59:44.725Z,10.08
2022-12-18T15:02:51.155Z,12.25
2022-12-18T15:05:57.396Z,10.78
2022-12-18T15:09:05.960Z,10.78
2022-12-18T15:12:13.603Z,9.10
2022-12-18T15:15:20.925Z,8.75
2022-12-18T15:18:49.286Z,11.00
2022-12-18T15:22:04.433Z,11.10
2022-12-18T15:25:06.367Z,9.80
2022-12-18T15:28:11.341Z,11.15
2022-12-18T15:31:33.334Z,12.05
2022-12-18T15:34:38.981Z,10.53
2022-12-18T15:37:44.323Z,9.65
2022-12-18T15:40:52.565Z,10.95
2022-12-18T15:43:58.379Z,8.98
2022-12-18T15:47:06.385Z,9.68
2022-12-18T15:50:12.791Z,8.75
2022-12-18T15:53:18.579Z,9.33
2022-12-18T15:56:45.143Z,9.80
2022-12-18T15:59:50.834Z,8.10
2022-12-18T16:02:59.085Z,9.33
2022-12-18T16:06:07.204Z,8.60
2022-12-18T16:09:14.330Z,8.80
2022-12-18T16:12:20.640Z,8.05
2022-12-18T16:15:28.060Z,8.05
2022-12-18T16:18:34.249Z,8.83
2022-12-18T16:21:41.476Z,9.70
2022-12-18T16:24:49.756Z,8.73
2022-12-18T16:27:55.830Z,9.83
2022-12-18T16:31:03.639Z,9.18
2022-12-18T16:34:42.760Z,9.90
2022-12-18T16:37:49.801Z,8.78
2022-12-18T16:41:13.993Z,11.28
2022-12-18T16:44:21.994Z,11.57
2022-12-18T16:47:28.745Z,17.30
2022-12-18T16:50:36.788Z,9.80
2022-12-18T16:53:44.705Z,8.80
2022-12-18T16:56:52.081Z,9.63
2022-12-18T17:00:04.466Z,9.28
2022-12-18T17:03:05.660Z,11.83
2022-12-18T17:06:14.694Z,10.63
2022-12-18T17:09:23.868Z,11.40
2022-12-18T17:12:30.619Z,10.80
2022-12-18T17:15:37.951Z,10.15
2022-12-18T17:18:47.638Z,8.43
2022-12-18T17:21:53.615Z,8.35
2022-12-18T17:25:02.597Z,8.08
2022-12-18T17:28:08.768Z,8.85
2022-12-18T17:31:15.490Z,7.95
2022-12-18T17:34:25.277Z,7.85
2022-12-18T17:37:30.101Z,7.45
2022-12-18T17:40:39.675Z,8.43
2022-12-18T17:43:46.864Z,9.03
2022-12-18T17:46:53.311Z,8.10
2022-12-18T17:50:00.567Z,7.75
2022-12-18T17:53:13.542Z,9.13
2022-12-18T17:56:21.265Z,8.73
2022-12-18T17:59:28.170Z,7.95
2022-12-18T18:02:34.190Z,8.70
2022-12-18T18:05:39.728Z,7.78
2022-12-18T18:08:44.732Z,7.70
2022-12-18T18:12:11.475Z,7.65
2022-12-18T18:15:20.581Z,7.72
2022-12-18T18:18:26.013Z,7.97
2022-12-18T18:21:31.513Z,7.45
2022-12-18T18:24:38.484Z,7.47
2022-12-18T18:27:47.842Z,6.62
2022-12-18T18:30:54.671Z,8.38
2022-12-18T18:34:00.685Z,8.33
2022-12-18T18:37:08.132Z,8.23
2022-12-18T18:40:13.707Z,9.33
2022-12-18T18:43:19.705Z,9.08
2022-12-18T18:46:28.876Z,10.10
2022-12-18T18:49:35.091Z,10.03
2022-12-18T18:52:42.690Z,11.45
2022-12-18T18:56:17.225Z,10.82
2022-12-18T18:58:59.244Z,8.25
2022-12-18T19:02:06.352Z,7.80
2022-12-18T19:05:13.442Z,7.53
2022-12-18T19:08:21.458Z,9.00
2022-12-18T19:11:45.256Z,8.50
2022-12-18T19:14:52.404Z,8.50
2022-12-18T19:18:01.181Z,7.53
2022-12-18T19:21:16.824Z,7.83
2022-12-18T19:24:25.042Z,7.80
2022-12-18T19:27:30.914Z,7.97
2022-12-18T19:30:38.434Z,7.83
2022-12-18T19:33:49.714Z,7.62
2022-12-18T19:36:59.799Z,9.03
2022-12-18T19:40:12.041Z,8.70
2022-12-18T19:43:12.262Z,7.70
2022-12-18T19:46:25.356Z,7.35
2022-12-18T19:49:33.102Z,7.85
2022-12-18T19:52:41.000Z,6.67
2022-12-18T19:55:48.575Z,8.38
2022-12-18T19:58:55.908Z,6.78
2022-12-18T20:02:01.242Z,7.35
2022-12-18T20:05:07.356Z,8.08
2022-12-18T20:08:14.715Z,7.62
2022-12-18T20:11:20.889Z,6.62
2022-12-18T20:14:29.697Z,8.15
2022-12-18T20:17:36.837Z,7.53
2022-12-18T20:20:42.679Z,8.13
2022-12-18T20:23:49.857Z,8.15
2022-12-18T20:26:57.829Z,7.37
2022-12-18T20:30:05.441Z,6.97
2022-12-18T20:33:11.606Z,7.15
2022-12-18T20:36:20.134Z,7.67
2022-12-18T20:39:27.267Z,8.13
2022-12-18T20:42:34.449Z,7.78
2022-12-18T20:45:40.147Z,9.15
2022-12-18T20:48:48.697Z,10.50
2022-12-18T20:51:55.137Z,9.20
2022-12-18T20:55:02.146Z,7.33
2022-12-18T20:58:07.953Z,8.05
2022-12-18T21:01:26.324Z,7.47
2022-12-18T21:04:32.292Z,7.92
2022-12-18T21:07:40.001Z,7.25
2022-12-18T21:10:39.371Z,8.30
2022-12-18T21:13:45.299Z,7.87
2022-12-18T21:16:53.787Z,7.60
2022-12-18T21:19:59.125Z,7.30
2022-12-18T21:23:15.913Z,6.85
2022-12-18T21:26:44.839Z,7.62
2022-12-18T21:29:45.741Z,7.78
2022-12-18T21:32:52.755Z,7.47
2022-12-18T21:35:59.550Z,7.85
2022-12-18T21:39:07.490Z,7.87
2022-12-18T21:42:29.962Z,8.35
2022-12-18T21:45:35.167Z,6.97
2022-12-18T21:48:42.513Z,7.12
2022-12-18T21:51:48.711Z,7.80
2022-12-18T21:54:55.000Z,7.25
2022-12-18T21:58:00.867Z,7.00
2022-12-18T22:01:06.929Z,7.08
2022-12-18T22:04:15.577Z,6.97
2022-12-18T22:07:22.676Z,6.45
2022-12-18T22:10:29.391Z,7.37
2022-12-18T22:13:35.500Z,7.37
2022-12-18T22:16:42.652Z,6.15
2022-12-18T22:19:48.767Z,7.30
2022-12-18T22:22:58.306Z,6.62
2022-12-18T22:26:03.528Z,7.70
2022-12-18T22:29:13.501Z,7.75
2022-12-18T22:32:30.763Z,7.25
2022-12-18T22:35:29.535Z,6.67
2022-12-18T22:38:35.212Z,7.10
2022-12-18T22:41:41.638Z,6.17
2022-12-18T22:44:50.706Z,7.95
2022-12-18T22:47:57.237Z,7.10
2022-12-18T22:51:02.460Z,6.87
2022-12-18T22:54:08.922Z,7.30
2022-12-18T22:57:14.382Z,6.97
2022-12-18T23:00:24.270Z,6.80
2022-12-18T23:03:30.086Z,6.85
2022-12-18T23:06:36.504Z,7.30
2022-12-18T23:09:42.840Z,6.72
2022-12-18T23:12:50.177Z,6.83
2022-12-18T23:15:57.807Z,6.87
2022-12-18T23:19:08.025Z,7.50
2022-12-18T23:22:13.907Z,7.67
2022-12-18T23:25:20.523Z,6.90
2022-12-18T23:28:26.946Z,7.70
2022-12-18T23:31:39.614Z,6.87
2022-12-18T23:34:45.416Z,7.00
2022-12-18T23:38:01.187Z,6.10
2022-12-18T23:41:03.276Z,6.08
2022-12-18T23:44:09.119Z,6.75
2022-12-18T23:47:15.111Z,5.62
2022-12-18T23:50:29.569Z,6.50
2022-12-18T23:53:30.747Z,6.87
2022-12-18T23:56:35.881Z,6.70
2022-12-18T23:59:41.597Z,7.20
